Time;durP1;ratioP1;P1;durP2;ratioP2;P2;SDS_P1;SDS_P2;PMS_P1;PMS_P2;Temp;Humidity;BMP_temperature;BMP_pressure;BME280_temperature;BME280_humidity;BME280_pressure;Samples;Min_cycle;Max_cycle;Signal;HPM_P1;HPM_P2
2022/04/10 00:01:14;;;;;;;7.13;2.67;;;6.10;99.90;;;;;;5115728;28;20198;-44
2022/04/10 00:03:41;;;;;;;9.37;2.90;;;5.90;99.90;;;;;;5115355;28;20436;-45
2022/04/10 00:06:09;;;;;;;5.67;2.63;;;6.20;99.90;;;;;;5115686;28;20427;-45
2022/04/10 00:08:36;;;;;;;6.03;2.17;;;;;;;;;;5114734;28;20436;-44
2022/04/10 00:11:03;;;;;;;6.67;2.57;;;6.30;99.90;;;;;;5115294;28;20472;-44
2022/04/10 00:13:29;;;;;;;8.43;2.20;;;6.10;99.90;;;;;;5115138;28;20403;-46
2022/04/10 00:15:56;;;;;;;7.03;2.47;;;6.00;99.90;;;;;;5115081;28;20434;-45
2022/04/10 00:18:22;;;;;;;4.20;2.00;;;6.30;99.90;;;;;;5114884;28;20435;-45
2022/04/10 00:20:49;;;;;;;4.50;3.00;;;6.10;99.90;;;;;;5114765;28;20438;-45
2022/04/10 00:23:17;;;;;;;5.20;2.30;;;5.90;99.90;;;;;;5114964;28;20973;-45
2022/04/10 00:25:44;;;;;;;3.63;2.17;;;6.00;99.90;;;;;;5114668;28;20436;-45
2022/04/10 00:28:10;;;;;;;5.80;2.30;;;6.00;99.90;;;;;;5114818;28;20454;-44
2022/04/10 00:30:37;;;;;;;5.22;2.60;;;5.80;99.90;;;;;;5114373;28;20468;-45
2022/04/10 00:33:03;;;;;;;6.67;2.40;;;6.00;99.90;;;;;;5115124;28;20190;-45
2022/04/10 00:35:30;;;;;;;5.00;2.13;;;;;;;;;;5113914;28;20441;-45
2022/04/10 00:37:57;;;;;;;10.00;3.50;;;5.80;99.90;;;;;;5114862;28;20431;-45
2022/04/10 00:40:25;;;;;;;6.23;2.90;;;5.90;99.90;;;;;;5122090;27;20528;-44
2022/04/10 00:42:52;;;;;;;4.82;2.22;;;;;;;;;;5135379;27;20431;-44
2022/04/10 00:45:20;;;;;;;3.30;2.40;;;5.80;99.90;;;;;;5116743;27;20213;-45
2022/04/10 00:47:48;;;;;;;4.47;2.63;;;5.90;99.90;;;;;;5116295;27;20449;-45
2022/04/10 00:50:16;;;;;;;4.77;2.87;;;5.90;99.90;;;;;;5116241;27;20837;-45
2022/04/10 00:52:44;;;;;;;5.17;3.10;;;6.00;99.90;;;;;;5115419;27;20542;-48
2022/04/10 00:55:11;;;;;;;4.60;2.47;;;6.00;99.90;;;;;;5115149;27;20440;-46
2022/04/10 00:57:39;;;;;;;8.07;3.05;;;6.30;99.90;;;;;;5114685;28;20195;-45
2022/04/10 01:00:09;;;;;;;6.73;3.40;;;6.00;99.90;;;;;;5113800;28;20246;-44
2022/04/10 01:02:36;;;;;;;9.07;3.53;;;5.90;99.90;;;;;;5114251;28;20535;-44
2022/04/10 01:05:03;;;;;;;6.83;3.77;;;5.80;99.90;;;;;;5095653;28;20444;-45
2022/04/10 01:07:30;;;;;;;4.60;2.90;;;5.80;99.90;;;;;;5095390;28;20460;-45
2022/04/10 01:09:57;;;;;;;7.30;3.65;;;5.90;99.90;;;;;;5095174;28;21064;-45
2022/04/10 01:12:24;;;;;;;5.28;3.42;;;6.10;99.90;;;;;;5095659;28;20222;-43
2022/04/10 01:14:55;;;;;;;12.00;3.80;;;5.80;99.90;;;;;;5095883;28;20226;-44
2022/04/10 01:17:32;;;;;;;6.93;3.30;;;5.90;99.90;;;;;;5095398;28;20499;-44
2022/04/10 01:19:59;;;;;;;3.50;3.17;;;5.80;99.90;;;;;;5095042;28;20464;-44
2022/04/10 01:22:32;;;;;;;7.60;2.93;;;5.70;99.90;;;;;;5095472;28;20500;-44
2022/04/10 01:25:03;;;;;;;10.23;3.73;;;5.70;99.90;;;;;;5095543;28;20444;-45
2022/04/10 01:27:35;;;;;;;7.75;4.13;;;5.90;99.90;;;;;;5095365;28;20722;-45
2022/04/10 01:30:02;;;;;;;8.00;3.07;;;5.70;99.90;;;;;;5113188;28;20226;-45
2022/04/10 01:32:29;;;;;;;4.10;3.28;;;5.80;99.90;;;;;;5112039;28;20474;-46
2022/04/10 01:35:00;;;;;;;7.60;3.30;;;5.80;99.90;;;;;;5095282;28;20637;-46
2022/04/10 01:37:30;;;;;;;9.63;3.20;;;5.60;99.90;;;;;;5112500;28;20484;-44
2022/04/10 01:39:58;;;;;;;7.27;3.23;;;5.70;99.90;;;;;;5098791;27;20308;-46
2022/04/10 01:42:26;;;;;;;11.33;4.60;;;6.00;99.90;;;;;;5115653;27;21029;-45
2022/04/10 01:44:52;;;;;;;10.63;3.20;;;5.70;99.90;;;;;;5133553;27;20978;-46
2022/04/10 01:47:20;;;;;;;8.95;3.30;;;5.90;99.90;;;;;;5115304;27;20452;-46
2022/04/10 01:49:47;;;;;;;6.38;3.53;;;5.60;99.90;;;;;;5133180;27;20213;-46
2022/04/10 01:52:14;;;;;;;7.17;3.80;;;5.60;99.90;;;;;;5115249;27;20221;-45
2022/04/10 01:54:42;;;;;;;13.90;3.60;;;5.70;99.90;;;;;;5100186;28;20539;-45
2022/04/10 01:57:10;;;;;;;4.50;2.90;;;5.60;99.90;;;;;;5094764;28;20440;-44
2022/04/10 01:59:37;;;;;;;4.50;2.95;;;5.60;99.90;;;;;;5094519;28;20464;-46
2022/04/10 02:02:05;;;;;;;8.65;4.57;;;5.70;99.90;;;;;;5094875;28;20691;-46
2022/04/10 02:04:31;;;;;;;5.05;3.03;;;5.50;99.90;;;;;;5113104;28;20194;-45
2022/04/10 02:06:58;;;;;;;5.80;3.80;;;5.50;99.90;;;;;;5094706;28;20210;-45
2022/04/10 02:09:26;;;;;;;7.50;3.10;;;5.50;99.90;;;;;;5112641;28;20725;-45
2022/04/10 02:11:55;;;;;;;8.90;3.50;;;5.60;99.90;;;;;;5113119;28;20521;-45
2022/04/10 02:14:22;;;;;;;6.03;3.20;;;5.30;99.90;;;;;;5094540;28;20675;-45
2022/04/10 02:16:48;;;;;;;6.32;3.28;;;5.30;99.90;;;;;;5113201;28;20194;-44
2022/04/10 02:19:16;;;;;;;9.20;3.17;;;5.30;99.90;;;;;;5094383;28;20225;-44
2022/04/10 02:21:42;;;;;;;6.83;3.90;;;5.40;99.90;;;;;;5094580;28;20971;-45
2022/04/10 02:24:09;;;;;;;9.50;4.40;;;5.50;99.90;;;;;;5094311;28;20941;-45
2022/04/10 02:26:36;;;;;;;7.20;3.10;;;5.40;99.90;;;;;;5094503;28;20435;-44
2022/04/10 02:29:04;;;;;;;10.05;3.33;;;5.60;99.90;;;;;;5093963;28;20504;-45
2022/04/10 02:31:31;;;;;;;6.00;3.40;;;5.40;99.90;;;;;;5094145;28;20197;-45
2022/04/10 02:33:58;;;;;;;10.80;3.97;;;5.60;99.90;;;;;;5094305;28;20436;-44
2022/04/10 02:36:25;;;;;;;6.77;3.10;;;;;;;;;;5095217;28;21034;-45
2022/04/10 02:38:52;;;;;;;4.93;3.50;;;5.50;99.90;;;;;;5111528;28;20494;-44
2022/04/10 02:41:18;;;;;;;5.40;3.50;;;5.50;99.90;;;;;;5127912;27;20447;-44
2022/04/10 02:43:45;;;;;;;5.70;3.50;;;5.60;99.90;;;;;;5114954;28;20903;-44
2022/04/10 02:46:13;;;;;;;12.03;3.50;;;5.60;99.90;;;;;;5114542;28;20500;-44
2022/04/10 02:48:43;;;;;;;12.13;5.10;;;5.60;99.90;;;;;;5114278;28;20481;-44
2022/04/10 02:51:15;;;;;;;7.18;3.72;;;5.60;99.90;;;;;;5114886;28;20203;-45
2022/04/10 02:53:41;;;;;;;9.77;4.00;;;5.60;99.90;;;;;;5107942;28;20241;-45
2022/04/10 02:56:08;;;;;;;6.80;3.97;;;5.70;99.90;;;;;;5094429;28;20454;-44
2022/04/10 02:58:34;;;;;;;9.17;3.33;;;5.30;99.90;;;;;;5093911;28;20444;-44
2022/04/10 03:01:04;;;;;;;8.55;3.80;;;5.60;99.90;;;;;;5094007;28;21039;-45
2022/04/10 03:03:35;;;;;;;10.95;4.10;;;5.50;99.90;;;;;;5094483;28;20701;-45
2022/04/10 03:06:03;;;;;;;8.05;3.90;;;5.60;99.90;;;;;;5094027;28;20238;-46
2022/04/10 03:08:30;;;;;;;6.88;4.28;;;5.60;99.90;;;;;;5093619;28;20558;-46
2022/04/10 03:10:57;;;;;;;11.52;3.35;;;5.80;99.90;;;;;;5093978;28;20202;-43
2022/04/10 03:13:24;;;;;;;9.07;4.57;;;5.50;99.90;;;;;;5093927;28;20222;-45
2022/04/10 03:15:51;;;;;;;8.47;4.70;;;5.80;99.90;;;;;;5096510;28;20455;-45
2022/04/10 03:18:18;;;;;;;7.53;3.43;;;5.80;99.90;;;;;;5098074;28;20447;-45
2022/04/10 03:20:46;;;;;;;7.27;3.37;;;5.60;99.90;;;;;;5116310;28;20428;-44
2022/04/10 03:23:13;;;;;;;8.00;5.20;;;5.70;99.90;;;;;;5099826;28;20453;-43
2022/04/10 03:25:40;;;;;;;15.73;4.63;;;5.50;99.90;;;;;;5099167;28;20459;-45
2022/04/10 03:28:08;;;;;;;5.43;3.23;;;5.90;99.90;;;;;;5097960;28;20660;-44
2022/04/10 03:30:34;;;;;;;9.03;4.30;;;5.50;99.90;;;;;;5097397;28;20845;-44
2022/04/10 03:33:01;;;;;;;10.90;4.13;;;5.80;99.90;;;;;;5097907;28;20475;-44
2022/04/10 03:35:29;;;;;;;8.67;4.20;;;5.80;99.90;;;;;;5098172;28;20462;-45
2022/04/10 03:37:58;;;;;;;10.93;4.30;;;5.60;99.90;;;;;;5097705;28;20961;-46
2022/04/10 03:40:24;;;;;;;13.83;4.27;;;5.40;99.90;;;;;;5123369;27;20216;-45
2022/04/10 03:42:52;;;;;;;7.93;4.60;;;5.50;99.90;;;;;;5118105;27;20534;-46
2022/04/10 03:45:19;;;;;;;10.07;3.70;;;5.50;99.90;;;;;;5117792;27;20436;-45
2022/04/10 03:47:47;;;;;;;7.70;4.05;;;5.60;99.90;;;;;;5117889;27;20970;-45
2022/04/10 03:50:14;;;;;;;6.03;3.55;;;5.30;99.90;;;;;;5117542;27;20265;-45
2022/04/10 03:52:41;;;;;;;8.50;3.55;;;5.30;99.90;;;;;;5136361;27;20679;-44
2022/04/10 03:55:10;;;;;;;8.23;3.85;;;5.60;99.90;;;;;;5098798;28;20289;-44
2022/04/10 03:57:36;;;;;;;6.70;3.42;;;5.40;99.90;;;;;;5097169;28;20202;-44
2022/04/10 04:00:04;;;;;;;9.27;3.58;;;;;;;;;;5096885;28;20587;-44
2022/04/10 04:02:42;;;;;;;10.50;4.68;;;5.40;99.90;;;;;;5115712;28;20201;-45
2022/04/10 04:05:10;;;;;;;10.10;3.70;;;5.40;99.90;;;;;;5097338;28;20193;-45
2022/04/10 04:07:38;;;;;;;5.03;3.03;;;5.40;99.90;;;;;;5097252;28;20450;-45
2022/04/10 04:10:06;;;;;;;9.85;3.55;;;5.50;99.90;;;;;;5115084;28;20267;-45
2022/04/10 04:12:36;;;;;;;8.02;3.83;;;5.40;99.90;;;;;;5114453;28;20586;-45
2022/04/10 04:15:04;;;;;;;9.75;4.28;;;5.60;99.90;;;;;;5115199;28;20199;-46
2022/04/10 04:17:30;;;;;;;6.70;3.47;;;5.40;99.90;;;;;;5096997;28;20225;-45
2022/04/10 04:19:58;;;;;;;7.63;3.35;;;5.40;99.90;;;;;;5115229;28;20216;-46
2022/04/10 04:22:24;;;;;;;10.48;3.47;;;5.50;99.90;;;;;;5097453;28;20690;-45
2022/04/10 04:24:51;;;;;;;7.70;3.45;;;5.40;99.90;;;;;;5096905;28;20676;-45
2022/04/10 04:27:18;;;;;;;9.02;3.30;;;5.60;99.90;;;;;;5095433;28;20552;-44
2022/04/10 04:29:46;;;;;;;10.25;3.90;;;5.40;99.90;;;;;;5097290;28;20280;-44
2022/04/10 04:32:13;;;;;;;12.80;4.18;;;5.60;99.90;;;;;;5115382;28;20223;-43
2022/04/10 04:34:39;;;;;;;7.53;3.38;;;5.60;99.90;;;;;;5097203;28;20239;-45
2022/04/10 04:37:09;;;;;;;11.10;4.80;;;5.20;99.90;;;;;;5097869;28;20202;-44
2022/04/10 04:39:36;;;;;;;6.75;3.03;;;5.50;99.90;;;;;;5115524;27;20206;-44
2022/04/10 04:42:03;;;;;;;7.85;4.13;;;5.50;99.90;;;;;;5135498;27;20273;-44
2022/04/10 04:44:30;;;;;;;9.50;3.83;;;5.50;99.90;;;;;;5117214;27;20661;-45
2022/04/10 04:46:58;;;;;;;8.93;3.38;;;5.40;99.90;;;;;;5117497;27;20234;-44
2022/04/10 04:49:25;;;;;;;6.70;3.40;;;5.60;99.90;;;;;;5117247;27;20253;-45
2022/04/10 04:51:52;;;;;;;7.70;4.03;;;5.60;99.90;;;;;;5136267;27;20531;-45
2022/04/10 04:54:19;;;;;;;10.02;4.00;;;5.70;99.90;;;;;;5105589;28;20221;-45
2022/04/10 04:56:46;;;;;;;6.25;4.07;;;5.60;99.90;;;;;;5096644;28;20205;-44
2022/04/10 04:59:14;;;;;;;11.38;4.65;;;5.50;99.90;;;;;;5096372;28;20622;-44
2022/04/10 05:01:41;;;;;;;6.20;3.25;;;5.40;99.90;;;;;;5096893;28;20198;-46
2022/04/10 05:04:10;;;;;;;8.68;3.80;;;5.60;99.90;;;;;;5097128;28;20194;-44
2022/04/10 05:06:38;;;;;;;8.23;4.63;;;5.80;99.90;;;;;;5114793;28;20255;-44
2022/04/10 05:09:06;;;;;;;18.45;5.45;;;5.60;99.90;;;;;;5096330;28;20464;-45
2022/04/10 05:11:33;;;;;;;8.30;3.87;;;5.40;99.90;;;;;;5096825;28;20198;-45
2022/04/10 05:14:00;;;;;;;8.33;3.03;;;;;;;;;;5096869;28;20907;-44
2022/04/10 05:16:28;;;;;;;8.27;3.80;;;5.40;99.90;;;;;;5113446;28;20448;-45
2022/04/10 05:18:57;;;;;;;7.38;3.42;;;5.50;99.90;;;;;;5095729;28;20595;-44
2022/04/10 05:21:27;;;;;;;10.43;3.20;;;5.50;99.90;;;;;;5096389;28;20670;-47
2022/04/10 05:23:54;;;;;;;11.80;3.30;;;5.60;99.90;;;;;;5096630;28;20796;-45
2022/04/10 05:26:23;;;;;;;14.57;3.77;;;5.60;99.90;;;;;;5096692;28;20541;-44
2022/04/10 05:28:55;;;;;;;14.83;4.37;;;5.80;99.90;;;;;;5118445;22;20487;-49
2022/04/10 05:31:21;;;;;;;10.13;4.07;;;5.70;99.90;;;;;;5134060;27;20432;-50
2022/04/10 05:33:48;;;;;;;9.15;3.80;;;5.90;99.90;;;;;;5114987;27;20228;-49
2022/04/10 05:36:18;;;;;;;8.60;2.70;;;6.10;99.90;;;;;;5114936;27;20555;-50
2022/04/10 05:38:49;;;;;;;5.87;3.03;;;;;;;;;;5114073;27;20435;-50
2022/04/10 05:41:19;;;;;;;13.02;3.92;;;6.00;99.90;;;;;;5111367;28;20979;-50
2022/04/10 05:43:49;;;;;;;14.50;3.83;;;6.00;99.90;;;;;;5094536;28;20195;-50
2022/04/10 05:46:17;;;;;;;7.03;3.07;;;6.00;99.90;;;;;;5094333;28;20462;-50
2022/04/10 05:48:47;;;;;;;10.38;3.72;;;6.00;99.90;;;;;;5094024;28;20550;-50
2022/04/10 05:51:16;;;;;;;14.13;2.93;;;6.00;99.90;;;;;;5094304;28;20229;-50
2022/04/10 05:53:43;;;;;;;7.40;3.73;;;6.20;99.90;;;;;;5101151;27;20475;-50
2022/04/10 05:56:11;;;;;;;7.03;3.33;;;6.20;99.90;;;;;;5114701;27;20943;-50
2022/04/10 05:58:44;;;;;;;6.00;3.03;;;6.10;99.90;;;;;;5114129;27;20190;-50
2022/04/10 06:01:11;;;;;;;9.23;3.30;;;;;;;;;;5114346;27;20559;-50
2022/04/10 06:03:39;;;;;;;10.20;5.60;;;6.00;99.90;;;;;;5114413;27;21018;-50
2022/04/10 06:06:09;;;;;;;11.23;3.30;;;6.20;99.90;;;;;;5114636;27;20458;-50
2022/04/10 06:08:42;;;;;;;8.57;3.67;;;6.20;99.90;;;;;;5113987;27;20215;-50
2022/04/10 06:11:09;;;;;;;11.53;3.63;;;6.10;99.90;;;;;;5114346;27;20206;-50
2022/04/10 06:13:39;;;;;;;11.00;3.90;;;;;;;;;;5114218;27;20471;-50
2022/04/10 06:16:11;;;;;;;10.30;3.08;;;6.70;99.90;;;;;;5114374;27;20889;-50
2022/04/10 06:18:39;;;;;;;8.73;4.20;;;6.50;99.90;;;;;;5113905;27;20201;-50
2022/04/10 06:21:08;;;;;;;9.10;4.50;;;6.60;99.90;;;;;;5114194;27;20443;-50
2022/04/10 06:23:35;;;;;;;10.75;3.25;;;6.70;99.90;;;;;;5114444;27;20440;-51
2022/04/10 06:26:06;;;;;;;7.93;3.47;;;6.60;99.90;;;;;;5114237;27;20204;-51
2022/04/10 06:28:34;;;;;;;9.70;3.40;;;6.50;99.90;;;;;;5113565;27;20977;-51
2022/04/10 06:31:05;;;;;;;9.53;3.63;;;6.80;99.90;;;;;;5114164;28;20508;-50
2022/04/10 06:33:35;;;;;;;15.23;4.17;;;6.80;99.90;;;;;;5114210;28;20506;-51
2022/04/10 06:36:04;;;;;;;15.00;4.00;;;;;;;;;;5113953;28;20447;-51
2022/04/10 06:38:31;;;;;;;11.47;3.30;;;6.50;99.90;;;;;;5113712;28;20457;-51
2022/04/10 06:41:09;;;;;;;8.60;3.90;;;6.90;99.90;;;;;;5113896;28;20534;-51
2022/04/10 06:43:36;;;;;;;8.30;3.23;;;6.70;99.90;;;;;;5113844;28;20536;-51
2022/04/10 06:46:23;;;;;;;13.00;3.77;;;6.60;99.90;;;;;;5132335;28;20431;-51
2022/04/10 06:49:01;;;;;;;9.43;3.53;;;7.00;99.90;;;;;;5113564;27;20516;-51
2022/04/10 06:51:27;;;;;;;7.93;4.00;;;7.00;99.90;;;;;;5117518;27;20485;-51
2022/04/10 06:53:56;;;;;;;9.70;3.40;;;6.80;99.90;;;;;;5109119;28;20444;-51
2022/04/10 06:56:23;;;;;;;6.00;3.20;;;6.70;99.90;;;;;;5097715;28;20810;-51
2022/04/10 06:58:50;;;;;;;8.13;3.37;;;7.10;99.90;;;;;;5114063;28;20449;-50
2022/04/10 07:01:17;;;;;;;9.40;3.57;;;7.10;99.90;;;;;;5097470;28;20440;-51
2022/04/10 07:03:46;;;;;;;5.60;2.90;;;;;;;;;;5097441;28;20445;-51
2022/04/10 07:06:15;;;;;;;9.93;3.80;;;7.10;99.90;;;;;;5114440;28;20452;-50
2022/04/10 07:08:42;;;;;;;17.07;4.43;;;7.10;99.90;;;;;;5096993;28;20420;-51
2022/04/10 07:11:10;;;;;;;9.10;4.20;;;;;;;;;;5114158;28;20438;-51
2022/04/10 07:13:37;;;;;;;9.20;3.20;;;7.50;99.90;;;;;;5114132;28;20560;-50
2022/04/10 07:16:06;;;;;;;9.73;4.60;;;;;;;;;;5097221;28;20449;-51
2022/04/10 07:18:33;;;;;;;7.80;3.77;;;7.50;99.90;;;;;;5113850;28;20921;-51
2022/04/10 07:21:06;;;;;;;10.63;4.10;;;7.50;99.90;;;;;;5097124;28;20461;-51
2022/04/10 07:23:43;;;;;;;7.70;3.40;;;7.30;99.90;;;;;;5096991;28;20454;-50
2022/04/10 07:26:19;;;;;;;13.47;3.30;;;7.50;99.90;;;;;;5097482;28;20496;-51
2022/04/10 07:28:52;;;;;;;9.23;4.40;;;;;;;;;;5096219;28;20956;-50
2022/04/10 07:31:20;;;;;;;14.33;2.93;;;7.50;99.90;;;;;;5114128;28;20446;-51
2022/04/10 07:33:47;;;;;;;8.07;3.13;;;7.70;99.90;;;;;;5097017;28;20469;-51
2022/04/10 07:36:38;;;;;;;9.27;3.27;;;7.50;99.90;;;;;;5096713;28;20448;-51
2022/04/10 07:39:05;;;;;;;10.90;3.30;;;;;;;;;;5096194;28;20897;-51
2022/04/10 07:41:38;;;;;;;4.43;3.17;;;;;;;;;;5117400;27;20521;-51
2022/04/10 07:44:14;;;;;;;9.27;2.83;;;8.10;99.90;;;;;;5117045;27;20791;-51
2022/04/10 07:49:26;;;;;;;11.10;3.50;;;7.90;99.90;;;;;;5116642;27;20475;-51
2022/04/10 07:52:03;;;;;;;8.67;3.43;;;7.90;99.90;;;;;;5117163;27;20505;-51
2022/04/10 07:54:43;;;;;;;13.93;3.50;;;8.30;99.90;;;;;;5101278;28;20511;-51
2022/04/10 07:57:10;;;;;;;11.97;3.37;;;8.20;99.90;;;;;;5096490;28;20456;-51
2022/04/10 07:59:36;;;;;;;11.07;3.07;;;8.30;99.70;;;;;;5095905;28;20523;-51
2022/04/10 08:02:04;;;;;;;6.40;3.20;;;8.30;99.30;;;;;;5096008;28;20584;-52
2022/04/10 08:04:34;;;;;;;7.13;3.20;;;8.50;99.40;;;;;;5114635;28;20507;-52
2022/04/10 08:07:21;;;;;;;6.27;2.90;;;8.30;99.20;;;;;;5115050;28;20481;-52
2022/04/10 08:09:48;;;;;;;8.27;3.80;;;8.70;99.30;;;;;;5095702;28;20877;-53
2022/04/10 08:12:14;;;;;;;7.47;2.90;;;8.60;99.50;;;;;;5114233;28;20461;-52
2022/04/10 08:14:41;;;;;;;9.17;3.40;;;8.20;99.40;;;;;;5114088;28;20471;-49
2022/04/10 08:17:11;;;;;;;10.30;3.50;;;;;;;;;;5114330;28;20931;-50
2022/04/10 08:19:38;;;;;;;7.00;3.10;;;8.60;99.40;;;;;;5113960;28;20448;-49
2022/04/10 08:22:05;;;;;;;12.57;3.70;;;8.30;99.00;;;;;;5113952;28;20443;-50
2022/04/10 08:24:33;;;;;;;10.20;3.40;;;8.60;99.10;;;;;;5114139;28;20422;-50
2022/04/10 08:26:59;;;;;;;10.20;3.87;;;8.50;99.00;;;;;;5113990;28;20409;-50
2022/04/10 08:29:26;;;;;;;9.03;3.70;;;8.90;98.90;;;;;;5113546;28;20536;-50
2022/04/10 08:31:53;;;;;;;15.60;4.30;;;8.80;98.80;;;;;;5114071;28;20944;-50
2022/04/10 08:34:19;;;;;;;13.23;3.87;;;8.80;98.60;;;;;;5113585;28;20478;-50
2022/04/10 08:36:46;;;;;;;14.63;4.63;;;8.80;98.60;;;;;;5113575;28;20446;-50
2022/04/10 08:39:13;;;;;;;8.03;3.13;;;;;;;;;;5113175;28;20979;-50
2022/04/10 08:41:41;;;;;;;8.63;3.80;;;9.00;97.50;;;;;;5131772;27;20804;-51
2022/04/10 08:44:07;;;;;;;8.40;3.70;;;9.20;97.10;;;;;;5134015;27;20430;-50
2022/04/10 08:46:35;;;;;;;11.60;4.07;;;;;;;;;;5134139;27;20449;-51
2022/04/10 08:49:02;;;;;;;8.70;3.30;;;9.10;96.70;;;;;;5133436;27;20451;-50
2022/04/10 08:51:30;;;;;;;10.07;3.43;;;9.60;97.10;;;;;;5134149;27;20430;-50
2022/04/10 08:53:57;;;;;;;12.37;3.70;;;;;;;;;;5124814;27;20478;-51
2022/04/10 08:56:24;;;;;;;8.80;3.23;;;9.50;95.90;;;;;;5113148;28;20938;-50
2022/04/10 08:58:52;;;;;;;13.80;4.20;;;9.70;96.20;;;;;;5112942;28;20436;-51
2022/04/10 09:01:22;;;;;;;7.13;3.00;;;9.40;96.20;;;;;;5094982;28;20499;-50
2022/04/10 09:03:49;;;;;;;13.53;3.43;;;9.70;96.50;;;;;;5113278;28;20979;-50
2022/04/10 09:06:16;;;;;;;17.23;3.20;;;9.40;96.20;;;;;;5113164;28;20772;-51
2022/04/10 09:08:43;;;;;;;9.47;3.77;;;;;;;;;;5094332;28;20448;-50
2022/04/10 09:11:11;;;;;;;18.07;3.47;;;9.40;97.40;;;;;;5113304;28;20440;-50
2022/04/10 09:13:39;;;;;;;11.90;3.30;;;9.40;97.70;;;;;;5112683;28;20709;-50
2022/04/10 09:16:15;;;;;;;6.73;3.87;;;9.30;98.00;;;;;;5113347;28;20451;-51
2022/04/10 09:18:53;;;;;;;12.03;4.53;;;9.60;98.20;;;;;;5112780;28;20938;-51
2022/04/10 09:21:22;;;;;;;8.77;3.53;;;;;;;;;;5113182;28;20440;-51
2022/04/10 09:24:07;;;;;;;17.50;4.03;;;9.80;97.40;;;;;;5113025;28;20460;-51
2022/04/10 09:26:45;;;;;;;8.27;3.10;;;9.50;96.70;;;;;;5112826;28;20556;-50
2022/04/10 09:29:13;;;;;;;7.43;3.20;;;9.60;97.00;;;;;;5112693;28;20471;-51
2022/04/10 09:31:41;;;;;;;14.27;4.07;;;9.60;96.90;;;;;;5112886;28;20439;-50
2022/04/10 09:34:09;;;;;;;8.17;3.10;;;9.60;96.60;;;;;;5112891;28;20475;-51
2022/04/10 09:36:38;;;;;;;8.00;2.83;;;9.80;96.80;;;;;;5111800;28;20439;-50
2022/04/10 09:39:06;;;;;;;15.17;4.27;;;;;;;;;;5112361;28;20458;-50
2022/04/10 09:41:33;;;;;;;9.80;3.60;;;9.60;96.60;;;;;;5114392;27;20446;-50
2022/04/10 09:44:01;;;;;;;10.70;3.57;;;9.70;95.60;;;;;;5133033;27;20431;-50
2022/04/10 09:46:29;;;;;;;10.93;3.40;;;9.70;95.80;;;;;;5133279;27;20435;-50
2022/04/10 09:48:58;;;;;;;11.03;3.90;;;;;;;;;;5132546;27;20417;-50
2022/04/10 09:51:24;;;;;;;8.97;3.40;;;9.50;95.00;;;;;;5133361;27;20462;-50
2022/04/10 09:54:05;;;;;;;6.53;2.80;;;9.80;94.80;;;;;;5125061;27;20442;-50
2022/04/10 09:56:32;;;;;;;11.30;3.70;;;9.50;94.20;;;;;;5112402;28;20801;-50
2022/04/10 09:59:00;;;;;;;7.90;4.07;;;9.50;96.10;;;;;;5111963;28;20462;-50
2022/04/10 10:01:27;;;;;;;15.03;5.33;;;9.50;96.20;;;;;;5112240;28;20410;-50
2022/04/10 10:03:57;;;;;;;9.10;4.50;;;9.50;97.20;;;;;;5112109;28;20588;-50
2022/04/10 10:06:25;;;;;;;8.07;3.43;;;9.70;97.00;;;;;;5112069;28;20432;-50
2022/04/10 10:08:52;;;;;;;9.73;3.67;;;9.70;97.00;;;;;;5111497;28;20440;-50
2022/04/10 10:11:20;;;;;;;5.30;2.80;;;10.00;96.60;;;;;;5111466;28;20423;-50
2022/04/10 10:13:47;;;;;;;11.60;3.50;;;9.70;96.30;;;;;;5093862;28;20494;-50
2022/04/10 10:16:16;;;;;;;8.07;3.53;;;9.70;96.60;;;;;;5093933;28;20595;-50
2022/04/10 10:18:44;;;;;;;10.03;3.70;;;10.10;96.10;;;;;;5093337;28;20451;-51
2022/04/10 10:21:14;;;;;;;7.27;2.87;;;10.30;94.60;;;;;;5112045;28;20443;-51
2022/04/10 10:23:46;;;;;;;7.50;2.90;;;10.30;94.10;;;;;;5111983;28;20451;-51
2022/04/10 10:26:39;;;;;;;6.77;2.50;;;10.20;93.20;;;;;;5112107;28;20459;-51
2022/04/10 10:29:24;;;;;;;8.57;3.67;;;10.20;92.50;;;;;;5085266;28;20494;-51
2022/04/10 10:32:01;;;;;;;5.23;2.40;;;10.30;92.10;;;;;;5111853;28;20431;-51
2022/04/10 10:34:29;;;;;;;8.67;3.80;;;;;;;;;;5093431;28;20478;-51
2022/04/10 10:37:01;;;;;;;6.00;2.83;;;10.40;92.00;;;;;;5111507;28;20435;-51
2022/04/10 10:39:30;;;;;;;8.03;3.33;;;;;;;;;;5111280;28;20470;-51
2022/04/10 10:42:10;;;;;;;7.40;3.57;;;10.10;92.20;;;;;;5111730;28;20528;-51
2022/04/10 10:44:50;;;;;;;7.07;2.90;;;;;;;;;;5111574;28;20936;-51
2022/04/10 10:47:23;;;;;;;6.70;2.70;;;10.20;91.80;;;;;;5111631;28;20441;-51
2022/04/10 10:49:51;;;;;;;10.57;3.33;;;;;;;;;;5111358;28;20447;-51
2022/04/10 10:52:20;;;;;;;6.20;2.80;;;;;;;;;;5111661;28;20436;-51
2022/04/10 10:54:53;;;;;;;6.13;2.67;;;10.70;90.10;;;;;;5127490;28;20466;-51
2022/04/10 10:57:24;;;;;;;9.23;2.80;;;;;;;;;;5131869;28;20541;-51
2022/04/10 10:59:52;;;;;;;7.37;2.60;;;11.00;87.70;;;;;;5131536;28;20458;-51
2022/04/10 11:02:21;;;;;;;7.33;2.43;;;10.90;87.50;;;;;;5132359;28;20427;-51
2022/04/10 11:04:49;;;;;;;8.33;2.80;;;;;;;;;;5131822;28;20953;-51
2022/04/10 11:07:24;;;;;;;8.30;2.67;;;11.40;87.10;;;;;;5132036;28;20438;-50
2022/04/10 11:09:55;;;;;;;9.37;2.80;;;10.90;82.20;;;;;;5131414;28;20473;-51
2022/04/10 11:12:22;;;;;;;9.00;3.13;;;;;;;;;;5131874;28;20431;-51
2022/04/10 11:14:51;;;;;;;6.93;3.43;;;11.20;84.70;;;;;;5131787;28;20474;-52
2022/04/10 11:17:19;;;;;;;8.60;3.27;;;11.20;83.30;;;;;;5131729;28;20442;-52
2022/04/10 11:19:48;;;;;;;9.47;2.83;;;11.00;82.40;;;;;;5131326;28;20450;-51
2022/04/10 11:22:19;;;;;;;4.20;2.57;;;11.20;83.10;;;;;;5131608;28;20427;-51
2022/04/10 11:24:51;;;;;;;10.07;3.50;;;11.00;83.80;;;;;;5131792;28;20443;-51
2022/04/10 11:27:41;;;;;;;5.67;1.90;;;10.60;83.40;;;;;;5132022;28;20432;-50
2022/04/10 11:30:09;;;;;;;9.30;3.10;;;10.70;83.60;;;;;;5152226;22;20486;-44
2022/04/10 11:32:42;;;;;;;9.90;2.87;;;10.60;84.70;;;;;;5133555;28;20757;-44
2022/04/10 11:35:14;;;;;;;8.87;2.50;;;11.30;85.70;;;;;;5133760;27;20537;-45
2022/04/10 11:37:44;;;;;;;7.50;2.37;;;11.00;84.40;;;;;;5138990;27;20426;-45
2022/04/10 11:40:12;;;;;;;5.20;2.60;;;10.40;89.90;;;;;;5136320;27;20459;-44
2022/04/10 11:42:39;;;;;;;7.63;3.30;;;10.40;91.30;;;;;;5137264;27;20453;-45
2022/04/10 11:45:09;;;;;;;5.93;2.67;;;10.70;91.60;;;;;;5118656;27;20495;-44
2022/04/10 11:47:37;;;;;;;7.43;2.80;;;;;;;;;;5136583;27;20423;-45
2022/04/10 11:50:05;;;;;;;4.87;2.63;;;10.40;92.60;;;;;;5136742;27;20447;-45
2022/04/10 11:52:31;;;;;;;5.77;3.37;;;10.10;93.50;;;;;;5137389;27;20974;-45
2022/04/10 11:54:58;;;;;;;8.63;3.53;;;9.50;93.90;;;;;;5119952;27;20479;-44
2022/04/10 11:57:26;;;;;;;8.30;3.47;;;10.10;93.70;;;;;;5116383;28;20431;-42
2022/04/10 11:59:55;;;;;;;10.63;3.40;;;10.30;94.10;;;;;;5115830;28;20462;-43
2022/04/10 12:02:21;;;;;;;8.57;3.23;;;10.00;94.20;;;;;;5097473;28;20443;-43
2022/04/10 12:04:49;;;;;;;8.50;3.47;;;10.00;94.50;;;;;;5115936;28;20439;-45
2022/04/10 12:07:18;;;;;;;9.00;3.17;;;10.10;94.80;;;;;;5116220;28;20431;-45
2022/04/10 12:09:47;;;;;;;7.43;4.80;;;10.20;94.10;;;;;;5115079;28;20978;-43
2022/04/10 12:12:14;;;;;;;11.70;3.20;;;10.00;93.60;;;;;;5115875;28;20833;-44
2022/04/10 12:14:42;;;;;;;8.73;2.63;;;10.00;93.80;;;;;;5116955;28;20471;-44
2022/04/10 12:17:13;;;;;;;6.47;2.47;;;10.30;92.80;;;;;;5117655;28;20491;-45
2022/04/10 12:19:40;;;;;;;4.00;2.10;;;10.30;93.10;;;;;;5118212;28;20451;-44
2022/04/10 12:22:08;;;;;;;4.60;2.30;;;10.40;92.90;;;;;;5119079;28;20481;-44
2022/04/10 12:24:36;;;;;;;4.53;2.60;;;10.40;92.10;;;;;;5115151;28;20574;-44
2022/04/10 12:27:06;;;;;;;10.57;3.53;;;10.70;92.20;;;;;;5114928;28;20432;-44
2022/04/10 12:29:34;;;;;;;5.37;2.77;;;10.60;92.40;;;;;;5096824;28;20506;-43
2022/04/10 12:32:04;;;;;;;7.93;2.70;;;10.80;92.80;;;;;;5115384;28;20528;-45
2022/04/10 12:34:34;;;;;;;5.33;2.37;;;10.70;92.30;;;;;;5115042;28;20441;-43
2022/04/10 12:37:07;;;;;;;6.83;2.70;;;10.70;91.60;;;;;;5114641;28;20473;-45
2022/04/10 12:39:35;;;;;;;7.30;3.30;;;11.00;91.80;;;;;;5116159;27;20911;-44
2022/04/10 12:42:07;;;;;;;5.33;2.60;;;11.00;92.00;;;;;;5135405;27;20537;-44
2022/04/10 12:44:34;;;;;;;9.70;3.83;;;10.70;91.70;;;;;;5136491;27;20561;-43
2022/04/10 12:47:00;;;;;;;5.83;3.30;;;11.10;91.90;;;;;;5134814;27;20431;-44
2022/04/10 12:49:28;;;;;;;8.43;3.63;;;10.90;91.40;;;;;;5134752;27;20455;-46
2022/04/10 12:51:59;;;;;;;7.73;3.73;;;10.90;90.80;;;;;;5135159;27;20431;-44
2022/04/10 12:54:40;;;;;;;10.33;5.47;;;11.00;91.10;;;;;;5123289;27;20448;-44
2022/04/10 12:57:07;;;;;;;5.23;2.80;;;10.50;90.60;;;;;;5116465;28;20427;-44
2022/04/10 12:59:36;;;;;;;13.47;3.37;;;11.00;90.60;;;;;;5114718;28;20455;-43
2022/04/10 13:02:04;;;;;;;5.57;2.33;;;11.00;90.40;;;;;;5115124;28;20428;-44
2022/04/10 13:04:32;;;;;;;5.63;3.40;;;10.80;86.80;;;;;;5114900;28;20508;-44
2022/04/10 13:06:58;;;;;;;7.20;4.50;;;10.90;87.80;;;;;;5116948;28;20417;-44
2022/04/10 13:09:25;;;;;;;3.70;2.30;;;10.90;89.80;;;;;;5114188;28;20460;-45
2022/04/10 13:11:53;;;;;;;4.13;2.40;;;11.20;89.00;;;;;;5114770;28;20428;-45
2022/04/10 13:14:19;;;;;;;6.57;2.90;;;10.20;88.40;;;;;;5114555;28;20421;-45